Wakanami Maru — JD2484 — position and weather

sailwx.info

Track history (hours):
 
Tides and Currents Weather Stations Pressure Air Temp Water Temp Dewpoint Dewpoint Depression Visibility Wind Speed Wind Dir Waves Ship Positions

Wakanami Maru

Last reported at 2017-Oct-09 01:38 UTC. Time now 2017-Oct-20 04:59 UTC.
Position N 34°57' E 139°44'.
Warning: this ship's position is 11 days out of date.

Length 74 m.

Type: Cargo ship. MMSI: 431000281.

Date/timePositionNaut miles runAvg speedWind from/ knotsBaromVisibWave heightAir tempDewpointWater temp
2017-Oct-09 01:38N 34°57' E 139°44'213.0
2017-Oct-09 01:30N 34°59' E 139°43'612.6
2017-Oct-09 01:00N 35°05' E 139°44'611.9
2017-Oct-09 00:30N 35°11' E 139°46'  
2017-Oct-05 05:35N 35°25' E 139°47'211.9
2017-Oct-05 05:26N 35°23' E 139°46'911.5
2017-Oct-05 04:39N 35°14' E 139°47'212.1
2017-Oct-05 04:27N 35°12' E 139°47'611.4
2017-Oct-05 03:54N 35°06' E 139°45'511.4
2017-Oct-05 03:29N 35°01' E 139°44'4 1.6
2017-Oct-05 01:01N 34°57' E 139°43'113.1
2017-Oct-05 00:56N 34°58' E 139°43'612.9
2017-Oct-05 00:30N 35°04' E 139°44'612.6
2017-Oct-04 23:59N 35°10' E 139°46'712.5
2017-Oct-04 23:25N 35°17' E 139°44'512.2
2017-Oct-04 23:00N 35°22' E 139°42'612.1
2017-Oct-04 22:29N 35°27' E 139°47'4 0.1
2017-Oct-03 12:54N 35°29' E 139°51'611.4
2017-Oct-03 12:24N 35°24' E 139°47'411.2
2017-Oct-03 12:00N 35°20' E 139°45'610.6
2017-Oct-03 11:25N 35°14' E 139°47'612.0
2017-Oct-03 10:56N 35°09' E 139°46'511.9
2017-Oct-03 10:30N 35°04' E 139°43'  
Track history (hours):
 
Tides and Currents Weather Stations Pressure Air Temp Water Temp Dewpoint Dewpoint Depression Visibility Wind Speed Wind Dir Waves Ship Positions

Wakanami Maru

Last reported at 2017-Oct-09 01:38 UTC. Time now 2017-Oct-20 04:59 UTC.
Position N 34°57' E 139°44'.
Warning: this ship's position is 11 days out of date.

Length 74 m.

Type: Cargo ship. MMSI: 431000281.

Date/timePositionNaut miles runAvg speedWind from/ knotsBaromVisibWave heightAir tempDewpointWater temp
2017-Oct-09 01:38N 34°57' E 139°44'213.0
2017-Oct-09 01:30N 34°59' E 139°43'612.6
2017-Oct-09 01:00N 35°05' E 139°44'611.9
2017-Oct-09 00:30N 35°11' E 139°46'  
2017-Oct-05 05:35N 35°25' E 139°47'211.9
2017-Oct-05 05:26N 35°23' E 139°46'911.5
2017-Oct-05 04:39N 35°14' E 139°47'212.1
2017-Oct-05 04:27N 35°12' E 139°47'611.4
2017-Oct-05 03:54N 35°06' E 139°45'511.4
2017-Oct-05 03:29N 35°01' E 139°44'4 1.6
2017-Oct-05 01:01N 34°57' E 139°43'113.1
2017-Oct-05 00:56N 34°58' E 139°43'612.9
2017-Oct-05 00:30N 35°04' E 139°44'612.6
2017-Oct-04 23:59N 35°10' E 139°46'712.5
2017-Oct-04 23:25N 35°17' E 139°44'512.2
2017-Oct-04 23:00N 35°22' E 139°42'612.1
2017-Oct-04 22:29N 35°27' E 139°47'4 0.1
2017-Oct-03 12:54N 35°29' E 139°51'611.4
2017-Oct-03 12:24N 35°24' E 139°47'411.2
2017-Oct-03 12:00N 35°20' E 139°45'610.6
2017-Oct-03 11:25N 35°14' E 139°47'612.0
2017-Oct-03 10:56N 35°09' E 139°46'511.9
2017-Oct-03 10:30N 35°04' E 139°43'  

Dump ship's entire track history